Time;durP1;ratioP1;P1;durP2;ratioP2;P2;SDS_P1;SDS_P2;PMS_P1;PMS_P2;Temp;Humidity;BMP_temperature;BMP_pressure;BME280_temperature;BME280_humidity;BME280_pressure;Samples;Min_cycle;Max_cycle;Signal;HPM_P1;HPM_P2
2024/03/02 00:02:25;;;;;;;;;;;;;;;6.45;100.00;99757.00;5075116;28;20090;-77
2024/03/02 00:04:50;;;;;;;;;;;;;;;6.43;100.00;99752.78;5074209;28;19948;-78
2024/03/02 00:07:16;;;;;;;;;;;;;;;6.41;100.00;99752.03;5063879;28;19942;-77
2024/03/02 00:09:41;;;;;;;;;;;;;;;6.40;100.00;99748.53;5086870;28;20329;-77
2024/03/02 00:12:06;;;;;;;;;;;;;;;6.38;100.00;99760.78;5078321;28;19921;-77
2024/03/02 00:14:31;;;;;;;;;;;;;;;6.33;100.00;99763.56;5076767;28;19924;-78
2024/03/02 00:16:57;;;;;;;;;;;;;;;6.28;100.00;99767.28;5074707;28;19920;-78
2024/03/02 00:19:22;;;;;;;;;;;;;;;6.32;100.00;99782.66;5075464;28;19927;-78
2024/03/02 00:21:48;;;;;;;;;;;;;;;6.37;100.00;99784.22;5078491;28;19954;-78
2024/03/02 00:24:33;;;;;;;;;;;;;;;6.33;100.00;99776.56;5061078;28;19919;-77
2024/03/02 00:26:58;;;;;;;;;;;;;;;6.34;100.00;99772.22;5076945;28;19912;-78
2024/03/02 00:29:24;;;;;;;;;;;;;;;6.32;100.00;99766.22;5078104;28;20253;-77
2024/03/02 00:31:49;;;;;;;;;;;;;;;6.29;100.00;99769.81;5081621;28;19957;-77
2024/03/02 00:34:18;;;;;;;;;;;;;;;6.28;100.00;99769.88;5059263;28;19947;-78
2024/03/02 00:36:43;;;;;;;;;;;;;;;6.30;100.00;99762.84;5085567;28;19964;-78
2024/03/02 00:39:12;;;;;;;;;;;;;;;6.30;100.00;99768.88;5092102;28;19924;-77
2024/03/02 00:41:42;;;;;;;;;;;;;;;6.29;100.00;99767.22;5057592;28;20094;-78
2024/03/02 00:44:09;;;;;;;;;;;;;;;6.28;100.00;99765.50;5082079;28;20281;-77
2024/03/02 00:46:35;;;;;;;;;;;;;;;6.22;100.00;99757.97;5082514;28;20195;-77
2024/03/02 00:49:01;;;;;;;;;;;;;;;6.22;100.00;99764.91;5083243;28;20121;-77
2024/03/02 00:51:28;;;;;;;;;;;;;;;6.15;100.00;99762.56;5077916;28;19927;-77
2024/03/02 00:53:57;;;;;;;;;;;;;;;6.12;100.00;99772.22;5077754;28;19927;-77
2024/03/02 00:56:23;;;;;;;;;;;;;;;6.13;100.00;99774.78;5074436;28;19954;-77
2024/03/02 00:58:49;;;;;;;;;;;;;;;6.11;100.00;99774.00;5057909;28;19924;-78
2024/03/02 01:01:15;;;;;;;;;;;;;;;6.09;100.00;99773.19;5056470;28;19926;-77
2024/03/02 01:03:41;;;;;;;;;;;;;;;6.11;100.00;99771.38;5074460;28;20017;-77
2024/03/02 01:06:07;;;;;;;;;;;;;;;6.11;100.00;99758.38;5074360;28;19920;-78
2024/03/02 01:08:32;;;;;;;;;;;;;;;6.13;100.00;99753.97;5076026;28;19924;-77
2024/03/02 01:10:57;;;;;;;;;;;;;;;6.15;100.00;99761.72;5084633;28;20231;-77
2024/03/02 01:13:23;;;;;;;;;;;;;;;6.10;100.00;99751.47;5058098;28;21512;-77
2024/03/02 01:15:49;;;;;;;;;;;;;;;6.07;100.00;99737.75;5081722;28;20318;-77
2024/03/02 01:18:14;;;;;;;;;;;;;;;6.07;100.00;99751.59;5074826;28;20011;-77
2024/03/02 01:20:39;;;;;;;;;;;;;;;6.05;100.00;99770.78;5068074;28;19948;-77
2024/03/02 01:23:04;;;;;;;;;;;;;;;6.06;100.00;99775.06;5078042;28;19934;-78
2024/03/02 01:25:30;;;;;;;;;;;;;;;6.06;100.00;99778.50;5074931;28;19912;-77
2024/03/02 01:27:55;;;;;;;;;;;;;;;6.07;100.00;99776.75;5085186;28;19954;-77
2024/03/02 01:30:21;;;;;;;;;;;;;;;6.08;100.00;99796.66;5092551;28;20002;-77
2024/03/02 01:32:46;;;;;;;;;;;;;;;6.06;100.00;99806.25;5090312;28;20116;-77
2024/03/02 01:35:11;;;;;;;;;;;;;;;6.07;100.00;99810.53;5074575;28;19917;-77
2024/03/02 01:37:37;;;;;;;;;;;;;;;6.04;100.00;99790.72;5074708;28;19925;-77
2024/03/02 01:40:02;;;;;;;;;;;;;;;6.04;100.00;99782.94;5070243;28;20156;-77
2024/03/02 01:42:28;;;;;;;;;;;;;;;6.06;100.00;99785.47;5075399;28;20143;-77
2024/03/02 01:44:53;;;;;;;;;;;;;;;6.07;100.00;99781.94;5082904;28;19924;-77
2024/03/02 01:47:18;;;;;;;;;;;;;;;6.05;100.00;99771.59;5080025;28;20211;-77
2024/03/02 01:49:43;;;;;;;;;;;;;;;6.09;100.00;99777.53;5085277;28;19928;-77
2024/03/02 01:52:09;;;;;;;;;;;;;;;6.04;100.00;99784.66;5082653;28;20212;-77
2024/03/02 01:54:34;;;;;;;;;;;;;;;6.02;100.00;99794.28;5085823;28;20246;-77
2024/03/02 01:56:59;;;;;;;;;;;;;;;6.02;100.00;99796.88;5079015;28;19977;-77
2024/03/02 01:59:25;;;;;;;;;;;;;;;6.02;100.00;99792.53;5074373;28;20122;-77
2024/03/02 02:01:50;;;;;;;;;;;;;;;6.00;100.00;99794.31;5071973;28;19920;-77
2024/03/02 02:04:15;;;;;;;;;;;;;;;5.97;100.00;99794.47;5074996;28;19974;-77
2024/03/02 02:06:41;;;;;;;;;;;;;;;5.96;100.00;99796.19;5070525;28;19920;-77
2024/03/02 02:09:08;;;;;;;;;;;;;;;5.99;100.00;99799.59;5071320;28;19916;-77
2024/03/02 02:11:33;;;;;;;;;;;;;;;5.99;100.00;99797.00;5085094;28;19951;-77
2024/03/02 02:13:58;;;;;;;;;;;;;;;5.98;100.00;99801.34;5098089;28;19939;-77
2024/03/02 02:16:24;;;;;;;;;;;;;;;5.99;100.00;99794.41;5084547;28;20128;-77
2024/03/02 02:18:49;;;;;;;;;;;;;;;5.98;100.00;99798.75;5077770;28;19991;-77
2024/03/02 02:21:14;;;;;;;;;;;;;;;5.96;100.00;99808.34;5086968;28;19920;-77
2024/03/02 02:23:40;;;;;;;;;;;;;;;5.97;100.00;99807.47;5074636;28;19927;-77
2024/03/02 02:26:05;;;;;;;;;;;;;;;5.96;100.00;99810.94;5078840;28;20094;-77
2024/03/02 02:28:30;;;;;;;;;;;;;;;5.98;100.00;99811.72;5071738;28;19920;-77
2024/03/02 02:30:56;;;;;;;;;;;;;;;5.99;100.00;99815.19;5074514;28;19920;-77
2024/03/02 02:33:21;;;;;;;;;;;;;;;5.96;100.00;99810.94;5077790;28;19999;-77
2024/03/02 02:35:46;;;;;;;;;;;;;;;5.95;100.00;99809.25;5060795;28;19927;-77
2024/03/02 02:38:12;;;;;;;;;;;;;;;5.98;100.00;99809.13;5077521;28;19931;-77
2024/03/02 02:40:37;;;;;;;;;;;;;;;5.99;100.00;99802.22;5079107;28;19920;-77
2024/03/02 02:43:02;;;;;;;;;;;;;;;5.96;100.00;99800.56;5097071;28;19920;-77
2024/03/02 02:45:27;;;;;;;;;;;;;;;5.97;100.00;99802.25;5097399;28;19924;-77
2024/03/02 02:47:53;;;;;;;;;;;;;;;6.00;100.00;99796.09;5088323;28;19984;-77
2024/03/02 02:50:18;;;;;;;;;;;;;;;5.95;100.00;99794.53;5081642;28;19920;-77
2024/03/02 02:52:43;;;;;;;;;;;;;;;5.89;100.00;99802.50;5087347;28;19920;-77
2024/03/02 02:55:09;;;;;;;;;;;;;;;5.87;100.00;99798.28;5096997;28;19998;-77
2024/03/02 02:57:36;;;;;;;;;;;;;;;5.86;100.00;99799.19;5079569;28;20177;-77
2024/03/02 03:00:05;;;;;;;;;;;;;;;5.85;100.00;99800.94;5078716;28;20287;-77
2024/03/02 03:02:30;;;;;;;;;;;;;;;5.85;100.00;99798.31;5090432;28;19920;-77
2024/03/02 03:04:57;;;;;;;;;;;;;;;5.86;100.00;99800.03;5076815;28;19923;-77
2024/03/02 03:07:22;;;;;;;;;;;;;;;5.89;100.00;99806.84;5081706;28;19928;-77
2024/03/02 03:09:47;;;;;;;;;;;;;;;5.87;100.00;99801.72;5095084;28;19954;-77
2024/03/02 03:12:12;;;;;;;;;;;;;;;5.88;100.00;99808.63;5088239;28;20206;-77
2024/03/02 03:14:40;;;;;;;;;;;;;;;5.88;100.00;99816.41;5078794;28;20257;-77
2024/03/02 03:17:06;;;;;;;;;;;;;;;5.88;100.00;99816.41;5070300;28;19922;-76
2024/03/02 03:19:32;;;;;;;;;;;;;;;5.87;100.00;99806.06;5094700;28;19920;-76
2024/03/02 03:21:57;;;;;;;;;;;;;;;5.91;100.00;99813.72;5089837;28;19923;-77
2024/03/02 03:24:22;;;;;;;;;;;;;;;5.94;100.00;99812.72;5093731;28;19924;-76
2024/03/02 03:26:47;;;;;;;;;;;;;;;5.94;100.00;99812.72;5089959;28;20255;-76
2024/03/02 03:29:12;;;;;;;;;;;;;;;5.94;100.00;99818.78;5090604;28;20006;-76
2024/03/02 03:31:38;;;;;;;;;;;;;;;5.93;100.00;99822.28;5084684;28;19916;-77
2024/03/02 03:34:03;;;;;;;;;;;;;;;5.91;100.00;99818.91;5087968;28;19986;-77
2024/03/02 03:36:28;;;;;;;;;;;;;;;5.89;100.00;99825.88;5090831;28;20121;-76
2024/03/02 03:38:54;;;;;;;;;;;;;;;5.92;100.00;99830.13;5076640;28;20116;-76
2024/03/02 03:41:19;;;;;;;;;;;;;;;5.95;100.00;99830.91;5076735;28;20196;-76
2024/03/02 03:43:44;;;;;;;;;;;;;;;5.96;100.00;99826.53;5088940;28;19931;-76
2024/03/02 03:46:09;;;;;;;;;;;;;;;5.96;100.00;99829.97;5084944;28;20291;-76
2024/03/02 03:48:35;;;;;;;;;;;;;;;5.97;100.00;99828.25;5087401;28;19941;-76
2024/03/02 03:51:00;;;;;;;;;;;;;;;5.95;100.00;99828.31;5076155;28;19982;-76
2024/03/02 03:53:25;;;;;;;;;;;;;;;5.96;100.00;99831.75;5080842;28;19999;-77
2024/03/02 03:55:50;;;;;;;;;;;;;;;5.96;100.00;99831.75;5077450;28;19990;-77
2024/03/02 03:58:17;;;;;;;;;;;;;;;5.96;100.00;99840.38;5084256;28;20068;-77
2024/03/02 04:00:42;;;;;;;;;;;;;;;5.98;100.00;99842.09;5090490;28;20235;-77
2024/03/02 04:03:07;;;;;;;;;;;;;;;5.95;100.00;99835.22;5077380;28;20048;-77
2024/03/02 04:05:33;;;;;;;;;;;;;;;5.94;100.00;99841.31;5076026;28;19965;-77
2024/03/02 04:07:58;;;;;;;;;;;;;;;5.91;100.00;99831.03;5075207;28;20010;-77
2024/03/02 04:10:24;;;;;;;;;;;;;;;5.89;100.00;99838.88;5070111;28;19927;-77
2024/03/02 04:12:50;;;;;;;;;;;;;;;5.87;100.00;99839.84;5078414;28;19916;-77
2024/03/02 04:15:15;;;;;;;;;;;;;;;5.87;100.00;99845.06;5091224;28;20226;-77
2024/03/02 04:17:40;;;;;;;;;;;;;;;5.85;100.00;99837.31;5059958;28;19925;-77
2024/03/02 04:20:06;;;;;;;;;;;;;;;5.85;100.00;99842.50;5075390;28;19919;-77
2024/03/02 04:22:32;;;;;;;;;;;;;;;5.84;100.00;99845.16;5088772;28;19928;-77
2024/03/02 04:24:58;;;;;;;;;;;;;;;5.84;100.00;99843.44;5085235;28;19920;-77
2024/03/02 04:27:23;;;;;;;;;;;;;;;5.84;100.00;99842.56;5077896;28;20232;-77
2024/03/02 04:29:48;;;;;;;;;;;;;;;5.84;100.00;99850.34;5075263;28;19927;-77
2024/03/02 04:32:13;;;;;;;;;;;;;;;5.83;100.00;99838.28;5083661;28;20254;-77
2024/03/02 04:34:39;;;;;;;;;;;;;;;5.81;100.00;99835.72;5080136;28;19927;-77
2024/03/02 04:37:04;;;;;;;;;;;;;;;5.82;100.00;99841.78;5081343;28;19928;-77
2024/03/02 04:39:29;;;;;;;;;;;;;;;5.83;100.00;99846.06;5081743;28;19924;-77
2024/03/02 04:41:54;;;;;;;;;;;;;;;5.80;100.00;99852.22;5075504;28;20120;-77
2024/03/02 04:44:20;;;;;;;;;;;;;;;5.78;100.00;99861.81;5074872;28;20150;-77
2024/03/02 04:46:45;;;;;;;;;;;;;;;5.77;100.00;99865.34;5082149;28;20191;-76
2024/03/02 04:49:10;;;;;;;;;;;;;;;5.77;100.00;99860.97;5093214;28;20115;-77
2024/03/02 04:51:35;;;;;;;;;;;;;;;5.79;100.00;99865.28;5075638;28;20154;-77
2024/03/02 04:54:00;;;;;;;;;;;;;;;5.80;100.00;99866.97;5074952;28;20062;-77
2024/03/02 04:58:57;;;;;;;;;;;;;;;5.77;100.00;99873.13;5077851;28;19925;-77
2024/03/02 05:01:22;;;;;;;;;;;;;;;5.76;100.00;99874.84;5087067;28;20216;-76
2024/03/02 05:03:47;;;;;;;;;;;;;;;5.76;100.00;99866.22;5088253;28;20335;-77
2024/03/02 05:06:13;;;;;;;;;;;;;;;5.75;100.00;99862.78;5069829;28;19942;-77
2024/03/02 05:08:38;;;;;;;;;;;;;;;5.74;100.00;99866.28;5064647;28;20241;-77
2024/03/02 05:13:47;;;;;;;;;;;;;;;5.73;100.00;99876.72;5089035;28;19926;-77
2024/03/02 05:16:12;;;;;;;;;;;;;;;5.72;100.00;99867.25;5089216;28;20185;-77
2024/03/02 05:18:38;;;;;;;;;;;;;;;5.73;100.00;99871.53;5073990;28;19932;-77
2024/03/02 05:21:03;;;;;;;;;;;;;;;5.72;100.00;99875.03;5056166;28;19931;-77
2024/03/02 05:23:28;;;;;;;;;;;;;;;5.66;100.00;99878.72;5078365;28;19966;-77
2024/03/02 05:25:54;;;;;;;;;;;;;;;5.64;100.00;99888.31;5063352;28;19966;-77
2024/03/02 05:28:19;;;;;;;;;;;;;;;5.66;100.00;99886.50;5074616;28;19979;-77
2024/03/02 05:30:44;;;;;;;;;;;;;;;5.68;100.00;99892.50;5074157;28;19924;-77
2024/03/02 05:33:09;;;;;;;;;;;;;;;5.68;100.00;99894.25;5078304;28;19921;-77
2024/03/02 05:35:35;;;;;;;;;;;;;;;5.64;100.00;99896.09;5092636;28;19920;-77
2024/03/02 05:38:00;;;;;;;;;;;;;;;5.63;100.00;99893.56;5079104;28;19924;-77
2024/03/02 05:40:25;;;;;;;;;;;;;;;5.62;100.00;99897.03;5074629;28;19920;-77
2024/03/02 05:42:50;;;;;;;;;;;;;;;5.58;100.00;99901.50;5079351;28;20069;-77
2024/03/02 05:45:16;;;;;;;;;;;;;;;5.58;100.00;99897.19;5084660;28;20359;-77
2024/03/02 05:47:41;;;;;;;;;;;;;;;5.60;100.00;99891.91;5082207;28;19920;-77
2024/03/02 05:50:07;;;;;;;;;;;;;;;5.62;100.00;99895.31;5092534;28;19927;-77
2024/03/02 05:52:32;;;;;;;;;;;;;;;5.63;100.00;99891.81;5085761;28;20220;-77
2024/03/02 05:54:57;;;;;;;;;;;;;;;5.62;100.00;99894.44;5078252;28;20219;-77
2024/03/02 05:57:47;;;;;;;;;;;;;;;5.65;100.00;99894.34;5073973;28;19967;-77
2024/03/02 06:00:13;;;;;;;;;;;;;;;5.64;100.00;99896.09;5078290;28;19948;-77
2024/03/02 06:02:41;;;;;;;;;;;;;;;5.67;100.00;99895.13;5077792;28;20132;-77
2024/03/02 06:05:07;;;;;;;;;;;;;;;5.64;100.00;99897.84;5078931;28;19920;-77
2024/03/02 06:07:32;;;;;;;;;;;;;;;5.62;100.00;99897.03;5078199;28;19926;-77
2024/03/02 06:09:58;;;;;;;;;;;;;;;5.62;100.00;99897.03;5089306;28;19990;-77
2024/03/02 06:12:23;;;;;;;;;;;;;;;5.64;100.00;99897.84;5086712;28;19927;-77
2024/03/02 06:14:48;;;;;;;;;;;;;;;5.62;100.00;99910.03;5092168;28;19920;-77
2024/03/02 06:17:14;;;;;;;;;;;;;;;5.59;100.00;99900.59;5081491;28;20117;-77
2024/03/02 06:19:39;;;;;;;;;;;;;;;5.57;100.00;99899.81;5077716;28;19950;-77
2024/03/02 06:22:05;;;;;;;;;;;;;;;5.59;100.00;99905.81;5089052;28;19983;-77
2024/03/02 06:24:30;;;;;;;;;;;;;;;5.62;100.00;99915.22;5096786;28;19920;-77
2024/03/02 06:26:56;;;;;;;;;;;;;;;5.56;100.00;99904.16;5082812;28;20113;-76
2024/03/02 06:29:21;;;;;;;;;;;;;;;5.56;100.00;99906.75;5087500;28;19955;-77
2024/03/02 06:31:47;;;;;;;;;;;;;;;5.58;100.00;99917.94;5084446;28;19958;-77
2024/03/02 06:34:12;;;;;;;;;;;;;;;5.58;100.00;99912.75;5077212;28;20001;-77
2024/03/02 06:36:38;;;;;;;;;;;;;;;5.61;100.00;99916.16;5079415;28;19920;-77
2024/03/02 06:39:03;;;;;;;;;;;;;;;5.63;100.00;99919.53;5077019;28;19947;-77
2024/03/02 06:41:29;;;;;;;;;;;;;;;5.66;100.00;99917.69;5078123;28;19996;-77
2024/03/02 06:43:59;;;;;;;;;;;;;;;5.66;100.00;99920.28;5092229;28;19931;-77
2024/03/02 06:46:24;;;;;;;;;;;;;;;5.65;100.00;99920.31;5092564;28;19913;-77
2024/03/02 06:48:50;;;;;;;;;;;;;;;5.63;100.00;99919.53;5076829;28;20250;-77
2024/03/02 06:51:15;;;;;;;;;;;;;;;5.60;100.00;99927.41;5077674;28;19927;-78
2024/03/02 06:53:41;;;;;;;;;;;;;;;5.62;100.00;99920.41;5077192;28;19939;-76
2024/03/02 06:56:06;;;;;;;;;;;;;;;5.62;100.00;99925.63;5077235;28;20024;-76
2024/03/02 06:58:32;;;;;;;;;;;;;;;5.61;100.00;99927.38;5079076;28;19931;-76
2024/03/02 07:00:57;;;;;;;;;;;;;;;5.61;100.00;99932.56;5084410;28;19959;-76
2024/03/02 07:03:22;;;;;;;;;;;;;;;5.57;100.00;99937.03;5084274;28;19955;-76
2024/03/02 07:05:48;;;;;;;;;;;;;;;5.56;100.00;99937.91;5093618;28;19916;-76
2024/03/02 07:08:13;;;;;;;;;;;;;;;5.57;100.00;99941.38;5077446;28;19928;-76
2024/03/02 07:10:38;;;;;;;;;;;;;;;5.55;100.00;99949.22;5076915;28;20217;-76
2024/03/02 07:13:03;;;;;;;;;;;;;;;5.57;100.00;99942.22;5082264;28;19916;-76
2024/03/02 07:18:45;;;;;;;;;;;;;;;5.51;100.00;99945.03;5002319;28;19925;-76
2024/03/02 07:21:10;;;;;;;;;;;;;;;5.48;100.00;99939.94;5065136;28;19921;-78
2024/03/02 07:23:35;;;;;;;;;;;;;;;5.49;100.00;99946.81;5076556;28;19927;-76
2024/03/02 07:26:01;;;;;;;;;;;;;;;5.47;100.00;99951.22;5076674;28;19916;-78
2024/03/02 07:28:27;;;;;;;;;;;;;;;5.46;100.00;99954.72;5077623;28;19921;-76
2024/03/02 07:30:59;;;;;;;;;;;;;;;5.47;100.00;99953.81;5068696;28;19920;-78
2024/03/02 07:33:25;;;;;;;;;;;;;;;5.48;100.00;99955.53;5077590;28;19920;-78
2024/03/02 07:35:50;;;;;;;;;;;;;;;5.50;100.00;99955.47;5076385;28;19958;-78
2024/03/02 07:38:15;;;;;;;;;;;;;;;5.51;100.00;99968.41;5077247;28;19930;-78
2024/03/02 07:40:41;;;;;;;;;;;;;;;5.54;100.00;99964.84;5076628;28;20070;-78
2024/03/02 07:43:06;;;;;;;;;;;;;;;5.53;100.00;99973.53;5078862;28;19919;-78
2024/03/02 07:45:31;;;;;;;;;;;;;;;5.52;100.00;99966.66;5077491;28;20104;-78
2024/03/02 07:47:57;;;;;;;;;;;;;;;5.53;100.00;99977.00;5058170;28;19927;-78
2024/03/02 07:50:22;;;;;;;;;;;;;;;5.55;100.00;99970.00;5083015;28;20273;-78
2024/03/02 07:52:47;;;;;;;;;;;;;;;5.56;100.00;99969.06;5077009;28;19927;-78
2024/03/02 07:55:13;;;;;;;;;;;;;;;5.54;100.00;99967.44;5082861;28;19958;-78
2024/03/02 07:57:38;;;;;;;;;;;;;;;5.56;100.00;99968.25;5077801;28;19929;-78
2024/03/02 08:00:04;;;;;;;;;;;;;;;5.56;100.00;99960.44;5076298;28;19959;-78
2024/03/02 08:02:29;;;;;;;;;;;;;;;5.61;100.00;99962.91;5059161;28;20207;-78
2024/03/02 08:04:54;;;;;;;;;;;;;;;5.63;100.00;99961.94;5075167;28;19920;-78
2024/03/02 08:07:20;;;;;;;;;;;;;;;5.65;100.00;99961.88;5057553;28;19920;-78
2024/03/02 08:09:45;;;;;;;;;;;;;;;5.65;100.00;99962.72;5075897;28;19916;-78
2024/03/02 08:12:11;;;;;;;;;;;;;;;5.66;100.00;99967.03;5075913;28;21077;-78
2024/03/02 08:14:36;;;;;;;;;;;;;;;5.66;100.00;99966.19;5074722;28;19923;-78
2024/03/02 08:17:01;;;;;;;;;;;;;;;5.63;100.00;99971.50;5074060;28;19912;-78
2024/03/02 08:19:26;;;;;;;;;;;;;;;5.70;100.00;99965.19;5076107;28;20158;-78
2024/03/02 08:21:52;;;;;;;;;;;;;;;5.72;100.00;99978.97;5074084;28;19924;-78
2024/03/02 08:24:17;;;;;;;;;;;;;;;5.75;100.00;99966.72;5071383;28;20349;-78
2024/03/02 08:26:42;;;;;;;;;;;;;;;5.79;100.00;99964.03;5073451;28;20129;-78
2024/03/02 08:29:08;;;;;;;;;;;;;;;5.80;100.00;99960.50;5074353;28;19920;-78
2024/03/02 08:31:33;;;;;;;;;;;;;;;5.83;100.00;99957.81;5072892;28;19916;-78
2024/03/02 08:33:58;;;;;;;;;;;;;;;5.86;100.00;99960.31;5077801;28;19977;-78
2024/03/02 08:36:24;;;;;;;;;;;;;;;5.88;100.00;99968.91;5057783;28;19921;-78
2024/03/02 08:38:49;;;;;;;;;;;;;;;5.89;100.00;99968.81;5074757;28;20025;-78
2024/03/02 08:41:15;;;;;;;;;;;;;;;5.91;100.00;99969.63;5076272;28;20212;-78
2024/03/02 08:43:42;;;;;;;;;;;;;;;5.89;100.00;99962.78;5085650;28;20016;-78
2024/03/02 08:46:07;;;;;;;;;;;;;;;5.91;100.00;99973.97;5061491;28;19938;-78
2024/03/02 08:48:32;;;;;;;;;;;;;;;5.94;100.00;99979.06;5080747;28;19920;-78
2024/03/02 08:50:57;;;;;;;;;;;;;;;5.94;100.00;99971.25;5085377;28;19946;-78
2024/03/02 08:53:23;;;;;;;;;;;;;;;6.02;100.00;99981.41;5062299;28;19918;-78
2024/03/02 08:55:48;;;;;;;;;;;;;;;6.01;100.00;99969.34;5094452;28;19927;-78
2024/03/02 08:58:14;;;;;;;;;;;;;;;6.05;100.00;99978.72;5076035;28;19924;-78
2024/03/02 09:00:39;;;;;;;;;;;;;;;6.08;100.00;99976.84;5066684;28;19916;-77
2024/03/02 09:03:04;;;;;;;;;;;;;;;6.09;100.00;99968.16;5058643;28;20130;-77
2024/03/02 09:05:29;;;;;;;;;;;;;;;6.11;100.00;99978.47;5075262;28;19921;-78
2024/03/02 09:07:55;;;;;;;;;;;;;;;6.13;100.00;99974.94;5090106;28;19927;-80
2024/03/02 09:10:20;;;;;;;;;;;;;;;6.19;100.00;99986.03;5071239;28;19955;-80
2024/03/02 09:12:45;;;;;;;;;;;;;;;6.22;100.00;99988.50;5077092;28;19919;-80
2024/03/02 09:15:11;;;;;;;;;;;;;;;6.24;100.00;99989.28;5079836;28;20215;-80
2024/03/02 09:17:36;;;;;;;;;;;;;;;6.25;100.00;99989.22;5072075;28;19982;-78
2024/03/02 09:20:03;;;;;;;;;;;;;;;6.28;100.00;99989.13;5088358;28;19920;-78
2024/03/02 09:22:29;;;;;;;;;;;;;;;6.32;100.00;99998.50;5071543;28;19912;-80
2024/03/02 09:24:54;;;;;;;;;;;;;;;6.34;100.00;99993.25;5082691;28;20374;-80
2024/03/02 09:27:20;;;;;;;;;;;;;;;6.34;100.00;99994.09;5080758;28;19920;-80
2024/03/02 09:29:45;;;;;;;;;;;;;;;6.38;100.00;99994.84;5080799;28;19946;-79
2024/03/02 09:32:12;;;;;;;;;;;;;;;6.40;100.00;99998.22;5074789;28;19987;-80
2024/03/02 09:34:37;;;;;;;;;;;;;;;6.44;100.00;99994.63;5091335;28;20167;-78
2024/03/02 09:37:04;;;;;;;;;;;;;;;6.44;100.00;99992.03;5072060;28;19959;-78
2024/03/02 09:39:29;;;;;;;;;;;;;;;6.43;100.00;99992.91;5073914;28;20196;-78
2024/03/02 09:41:55;;;;;;;;;;;;;;;6.47;100.00;99991.06;5055902;28;19919;-77
2024/03/02 09:44:20;;;;;;;;;;;;;;;6.51;100.00;100003.03;5085079;28;19920;-78
2024/03/02 09:46:48;;;;;;;;;;;;;;;6.53;100.00;100002.09;5075107;28;19928;-78
2024/03/02 09:49:14;;;;;;;;;;;;;;;6.56;100.00;99998.50;5073651;28;19920;-78
2024/03/02 09:51:40;;;;;;;;;;;;;;;6.63;100.00;100004.34;5074873;28;19919;-77
2024/03/02 09:54:07;;;;;;;;;;;;;;;6.64;100.00;100014.69;5088588;28;20207;-78
2024/03/02 09:56:32;;;;;;;;;;;;;;;6.69;100.00;100009.31;5075388;28;19916;-78
2024/03/02 09:58:57;;;;;;;;;;;;;;;6.75;100.00;100022.09;5053261;28;19991;-78
2024/03/02 10:01:23;;;;;;;;;;;;;;;6.77;100.00;100027.22;5073105;28;19916;-78
2024/03/02 10:03:50;;;;;;;;;;;;;;;6.85;100.00;100030.41;5072144;28;19920;-77
2024/03/02 10:06:28;;;;;;;;;;;;;;;6.87;100.00;100021.59;5069146;28;19955;-77
2024/03/02 10:08:54;;;;;;;;;;;;;;;6.91;100.00;100020.59;5064679;28;19912;-78
2024/03/02 10:11:30;;;;;;;;;;;;;;;6.94;100.00;100014.41;5077014;28;19920;-78
2024/03/02 10:14:07;;;;;;;;;;;;;;;6.96;100.00;100023.00;5071243;28;19921;-78
2024/03/02 10:16:33;;;;;;;;;;;;;;;6.98;100.00;100008.19;5074099;28;19952;-78
2024/03/02 10:18:58;;;;;;;;;;;;;;;6.99;100.00;100002.06;5068292;28;20182;-78
2024/03/02 10:21:25;;;;;;;;;;;;;;;7.01;100.00;99991.59;5056672;28;20130;-78
2024/03/02 10:23:50;;;;;;;;;;;;;;;7.09;100.00;99990.41;5073065;28;19912;-78
2024/03/02 10:26:18;;;;;;;;;;;;;;;7.15;100.00;99991.03;5073274;28;19947;-78
2024/03/02 10:28:52;;;;;;;;;;;;;;;7.21;100.00;99983.00;5084402;28;19923;-78
2024/03/02 10:31:17;;;;;;;;;;;;;;;7.24;100.00;99978.53;5086062;28;19920;-78
2024/03/02 10:33:42;;;;;;;;;;;;;;;7.26;100.00;99983.66;5087944;28;19915;-77
2024/03/02 10:36:08;;;;;;;;;;;;;;;7.26;100.00;99987.13;5084095;28;20224;-78
2024/03/02 10:38:33;;;;;;;;;;;;;;;7.29;100.00;99994.81;5060357;28;20208;-78
2024/03/02 10:40:59;;;;;;;;;;;;;;;7.30;100.00;99982.63;5078175;28;19913;-78
2024/03/02 10:43:26;;;;;;;;;;;;;;;7.30;100.00;99991.28;5082626;28;19919;-77
2024/03/02 10:45:52;;;;;;;;;;;;;;;7.32;100.00;99975.59;5086561;28;19932;-78
2024/03/02 10:48:17;;;;;;;;;;;;;;;7.32;100.00;99967.78;5058325;28;19920;-78
2024/03/02 10:50:43;;;;;;;;;;;;;;;7.32;100.00;99962.56;5073728;28;20313;-78
2024/03/02 10:53:08;;;;;;;;;;;;;;;7.33;100.00;99974.69;5063897;28;19930;-78
2024/03/02 10:55:33;;;;;;;;;;;;;;;7.33;100.00;99973.84;5072155;28;19932;-78
2024/03/02 10:58:01;;;;;;;;;;;;;;;7.32;100.00;99975.59;5072124;28;20868;-78
2024/03/02 11:00:32;;;;;;;;;;;;;;;7.30;100.00;99975.66;5073053;28;19916;-77
2024/03/02 11:03:05;;;;;;;;;;;;;;;7.30;100.00;99975.66;5089537;28;19943;-78
2024/03/02 11:05:36;;;;;;;;;;;;;;;7.30;100.00;99975.66;5071927;28;19920;-78
2024/03/02 11:08:05;;;;;;;;;;;;;;;7.29;100.00;99973.97;5071440;28;19924;-78
2024/03/02 11:10:37;;;;;;;;;;;;;;;7.32;100.00;99983.41;5071269;28;20357;-78
2024/03/02 11:13:08;;;;;;;;;;;;;;;7.36;100.00;99981.53;5088509;28;19920;-78
2024/03/02 11:15:35;;;;;;;;;;;;;;;7.40;100.00;99970.91;5070282;28;19924;-77
2024/03/02 11:18:02;;;;;;;;;;;;;;;7.41;100.00;99967.41;5071972;28;19924;-78
2024/03/02 11:20:29;;;;;;;;;;;;;;;7.43;100.00;99969.94;5071351;28;19917;-78
2024/03/02 11:22:54;;;;;;;;;;;;;;;7.44;100.00;99971.63;5067765;28;19991;-78
2024/03/02 11:25:26;;;;;;;;;;;;;;;7.43;100.00;99976.00;5072511;28;19931;-78
2024/03/02 11:27:55;;;;;;;;;;;;;;;7.44;100.00;99967.28;5072648;28;20138;-78
2024/03/02 11:30:32;;;;;;;;;;;;;;;7.48;100.00;99965.41;5047836;28;19934;-77
2024/03/02 11:32:58;;;;;;;;;;;;;;;7.53;100.00;99959.97;5070147;28;19921;-77
2024/03/02 11:35:25;;;;;;;;;;;;;;;7.60;100.00;99959.66;5071622;28;20262;-78
2024/03/02 11:37:51;;;;;;;;;;;;;;;7.67;100.00;99958.47;5072076;28;19962;-78
2024/03/02 11:40:21;;;;;;;;;;;;;;;7.77;100.00;99950.28;5071253;28;19920;-78
2024/03/02 11:42:46;;;;;;;;;;;;;;;7.84;100.00;99947.34;5070142;28;19951;-78
2024/03/02 11:45:14;;;;;;;;;;;;;;;7.91;100.00;99936.63;5071883;28;19924;-77
2024/03/02 11:47:40;;;;;;;;;;;;;;;7.97;100.00;99939.81;5069212;28;19920;-77
2024/03/02 11:50:06;;;;;;;;;;;;;;;8.06;100.00;99938.56;5070658;28;19954;-78
2024/03/02 11:52:34;;;;;;;;;;;;;;;8.11;100.00;99940.97;5069609;28;20251;-78
2024/03/02 11:55:00;;;;;;;;;;;;;;;8.16;100.00;99939.84;5069322;28;19920;-78
2024/03/02 11:57:27;;;;;;;;;;;;;;;8.20;100.00;99936.16;5071488;28;19967;-77
2024/03/02 11:59:52;;;;;;;;;;;;;;;8.25;100.00;99931.59;5069213;28;19920;-78
2024/03/02 12:02:21;;;;;;;;;;;;;;;8.27;100.00;99940.19;5071045;28;20150;-78
2024/03/02 12:04:48;;;;;;;;;;;;;;;8.27;100.00;99926.31;5067386;28;20004;-78
2024/03/02 12:07:19;;;;;;;;;;;;;;;8.29;100.00;99931.47;5053861;28;19978;-78
2024/03/02 12:09:44;;;;;;;;;;;;;;;8.36;100.00;99919.84;5067127;28;20127;-77
2024/03/02 12:12:09;;;;;;;;;;;;;;;8.43;100.00;99916.91;5071516;28;19983;-78
2024/03/02 12:14:36;;;;;;;;;;;;;;;8.47;100.00;99917.59;5067748;28;19990;-78
2024/03/02 12:17:01;;;;;;;;;;;;;;;8.50;100.00;99909.63;5068719;28;19931;-79
2024/03/02 12:19:27;;;;;;;;;;;;;;;8.57;100.00;99911.03;5069481;28;20122;-80
2024/03/02 12:21:56;;;;;;;;;;;;;;;8.59;100.00;99892.72;5051138;28;20131;-78
2024/03/02 12:24:22;;;;;;;;;;;;;;;8.62;100.00;99896.03;5068516;28;19921;-78
2024/03/02 12:26:48;;;;;;;;;;;;;;;8.63;100.00;99899.47;5070887;28;20230;-78
2024/03/02 12:29:13;;;;;;;;;;;;;;;8.63;100.00;99889.88;5065136;28;19927;-78
2024/03/02 12:31:39;;;;;;;;;;;;;;;8.61;100.00;99888.25;5067981;28;19920;-78
2024/03/02 12:34:04;;;;;;;;;;;;;;;8.63;100.00;99891.63;5068423;28;19951;-79
2024/03/02 12:36:29;;;;;;;;;;;;;;;8.67;100.00;99905.38;5069606;28;19920;-78
2024/03/02 12:38:54;;;;;;;;;;;;;;;8.71;100.00;99909.53;5069124;28;20223;-78
2024/03/02 12:41:20;;;;;;;;;;;;;;;8.75;100.00;99909.31;5070182;28;19947;-79
2024/03/02 12:43:46;;;;;;;;;;;;;;;8.77;100.00;99907.47;5071089;28;20190;-78
2024/03/02 12:46:11;;;;;;;;;;;;;;;8.79;100.00;99902.19;5070160;28;19927;-77
2024/03/02 12:48:37;;;;;;;;;;;;;;;8.84;100.00;99908.88;5069807;28;19961;-78